Huaral, Peru
Current Conditions -  °F | °C
As of 1:00 PM on Thursday 23 Oct 2014 (Local Time) from SPIM Reporting Station
Overcast Overcast  
Wind Chill: 68°   Ceiling: 1700
Heat Index: 68°   Visibility: 6mi
Dew Point: 59°   Wind: 7mph
Humidity: 73%   Direction: 280°W
Pressure: 29.94"   Gusts: NA
Location:  11.5°S, 77.21°W
Report Text: SPIM 231800Z 28006KT 210V320 9999 OVC017 20/15 Q1014 NOSIG RMK PP000
Loading
Personal Weather Stations






























Interactive Weather Map
Tropical Storm Tracking
New forecast layout! Learn more

10-Day Weather Forecast

Advertisements
Track Severe Weather on mobile